createdAt,value
2023-06-07T00:04:34.248Z,99043.10
2023-06-07T00:09:37.463Z,99041.23
2023-06-07T00:14:40.669Z,99041.77
2023-06-07T00:19:43.732Z,99042.70
2023-06-07T00:24:46.886Z,99041.88
2023-06-07T00:29:50.085Z,99041.10
2023-06-07T00:34:53.223Z,99040.88
2023-06-07T00:39:56.351Z,99038.70
2023-06-07T00:44:59.437Z,99036.92
2023-06-07T00:50:04.871Z,99032.70
2023-06-07T00:55:09.660Z,99032.99
2023-06-07T01:00:15.187Z,99027.92
2023-06-07T01:05:21.587Z,99031.84
2023-06-07T01:10:28.704Z,99032.24
2023-06-07T01:15:33.105Z,99026.86
2023-06-07T01:20:38.958Z,99027.32
2023-06-07T01:25:42.060Z,99022.52
2023-06-07T01:30:46.669Z,99022.09
2023-06-07T01:35:53.361Z,99018.81
2023-06-07T01:40:58.074Z,99015.79
2023-06-07T01:46:02.427Z,99011.70
2023-06-07T01:51:05.684Z,99014.39
2023-06-07T01:56:17.451Z,99013.29
2023-06-07T02:01:30.798Z,99009.02
2023-06-07T02:06:38.027Z,99009.77
2023-06-07T02:11:42.985Z,99010.58
2023-06-07T02:16:46.130Z,99012.33
2023-06-07T02:21:49.304Z,99010.55
2023-06-07T02:26:55.315Z,99010.95
2023-06-07T02:32:02.084Z,99007.35
2023-06-07T02:37:05.916Z,99006.63
2023-06-07T02:42:09.361Z,99006.15
2023-06-07T02:47:12.536Z,99009.81
2023-06-07T02:52:15.936Z,99007.43
2023-06-07T02:57:19.188Z,99008.24
2023-06-07T03:02:22.410Z,99013.12
2023-06-07T03:07:27.154Z,99016.52
2023-06-07T03:12:30.613Z,99018.64
2023-06-07T03:17:34.640Z,99017.24
2023-06-07T03:22:38.159Z,99021.52
2023-06-07T03:27:44.496Z,99022.50
2023-06-07T03:32:56.425Z,99022.83
2023-06-07T03:38:11.084Z,99023.75
2023-06-07T03:43:14.639Z,99021.92
2023-06-07T03:48:19.659Z,99025.80
2023-06-07T03:53:22.954Z,99027.34
2023-06-07T03:58:26.273Z,99027.49
2023-06-07T04:03:31.844Z,99027.57
2023-06-07T04:08:38.569Z,99031.11
2023-06-07T04:13:45.510Z,99025.00
2023-06-07T04:18:49.095Z,99024.60
2023-06-07T04:23:53.080Z,99024.64
2023-06-07T04:28:59.795Z,99027.58
2023-06-07T04:34:07.382Z,99032.48
2023-06-07T04:39:12.487Z,99035.32
2023-06-07T04:44:29.990Z,99036.56
2023-06-07T04:49:42.121Z,99039.26
2023-06-07T04:54:48.290Z,99042.17
2023-06-07T04:59:53.806Z,99044.80
2023-06-07T05:05:05.546Z,99044.30
2023-06-07T05:10:09.400Z,99043.70
2023-06-07T05:15:13.262Z,99039.83
2023-06-07T05:20:18.708Z,99038.21
2023-06-07T05:25:31.904Z,99034.33
2023-06-07T05:30:35.920Z,99030.38
2023-06-07T05:35:39.854Z,99028.17
2023-06-07T05:40:43.832Z,99036.53
2023-06-07T05:45:46.997Z,99037.05
2023-06-07T05:50:50.323Z,99033.26
2023-06-07T05:55:57.198Z,99039.36
2023-06-07T06:01:00.555Z,99039.42
2023-06-07T06:06:17.648Z,99042.25
2023-06-07T06:13:52.417Z,99043.20
2023-06-07T06:18:55.780Z,99049.70
2023-06-07T06:23:59.498Z,99050.27
2023-06-07T06:29:02.818Z,99050.64
2023-06-07T06:34:06.690Z,99052.92
2023-06-07T06:39:09.992Z,99047.23
2023-06-07T06:44:13.372Z,99045.77
2023-06-07T06:49:19.357Z,99048.98
2023-06-07T06:54:22.926Z,99049.64
2023-06-07T06:59:26.993Z,99045.16
2023-06-07T07:04:30.546Z,99048.58
2023-06-07T07:09:33.899Z,99048.31
2023-06-07T07:14:37.087Z,99045.73
2023-06-07T07:19:40.262Z,99047.97
2023-06-07T07:24:43.397Z,99049.23
2023-06-07T07:29:46.410Z,99050.59
2023-06-07T07:34:49.683Z,99049.00
2023-06-07T07:39:52.900Z,99046.50
2023-06-07T07:44:56.279Z,99044.96
2023-06-07T07:49:59.890Z,99042.70
2023-06-07T07:55:04.584Z,99044.89
2023-06-07T08:00:11.074Z,99042.95
2023-06-07T08:05:22.873Z,99038.71
2023-06-07T08:10:30.809Z,99039.34
2023-06-07T08:15:34.159Z,99037.23
2023-06-07T08:20:37.375Z,99038.15
2023-06-07T08:25:40.683Z,99038.16
2023-06-07T08:30:43.885Z,99041.31
2023-06-07T08:35:47.026Z,99038.36
2023-06-07T08:40:50.268Z,99035.46
2023-06-07T08:45:54.791Z,99032.29
2023-06-07T08:51:01.402Z,99030.83
2023-06-07T08:56:05.673Z,99027.98
2023-06-07T09:01:09.393Z,99027.16
2023-06-07T09:06:14.872Z,99029.55
2023-06-07T09:11:22.001Z,99031.49
2023-06-07T09:16:54.484Z,99031.53
2023-06-07T09:21:58.595Z,99034.21
2023-06-07T09:27:04.412Z,99038.61
2023-06-07T09:32:25.752Z,99035.34
2023-06-07T09:37:42.292Z,99042.19
2023-06-07T09:42:59.265Z,99032.80
2023-06-07T09:48:06.148Z,99028.64
2023-06-07T09:53:10.670Z,99027.29
2023-06-07T09:58:23.712Z,99024.91
2023-06-07T10:03:29.868Z,99023.03
2023-06-07T10:08:33.942Z,99021.70
2023-06-07T10:13:39.136Z,99014.91
2023-06-07T10:18:45.813Z,99007.77
2023-06-07T10:23:55.202Z,99005.20
2023-06-07T10:29:10.744Z,99007.04
2023-06-07T10:34:16.011Z,99004.91
2023-06-07T10:39:19.970Z,99000.45
2023-06-07T10:44:24.182Z,99002.05
2023-06-07T10:49:38.424Z,99001.38
2023-06-07T10:54:42.842Z,98997.89
2023-06-07T10:59:46.085Z,99002.67
2023-06-07T11:04:59.672Z,99001.40
2023-06-07T11:10:06.331Z,99003.50
2023-06-07T11:15:32.162Z,99006.42
2023-06-07T11:20:41.857Z,99006.92
2023-06-07T11:25:46.309Z,99011.30
2023-06-07T11:30:50.704Z,99016.61
2023-06-07T11:35:55.259Z,99021.92
2023-06-07T11:40:58.630Z,99020.41
2023-06-07T11:46:02.149Z,99024.98
2023-06-07T11:51:05.226Z,99021.58
2023-06-07T11:56:09.637Z,99018.34
2023-06-07T12:01:13.679Z,99019.92
2023-06-07T12:06:16.996Z,99018.67
2023-06-07T12:11:25.832Z,99015.16
2023-06-07T12:16:29.970Z,99008.17
2023-06-07T12:21:33.696Z,99008.87
2023-06-07T12:26:38.172Z,99007.40
2023-06-07T12:31:48.005Z,98996.75
2023-06-07T12:36:51.963Z,98998.81
2023-06-07T12:41:55.135Z,98992.40
2023-06-07T12:46:59.508Z,98987.73
2023-06-07T12:52:03.818Z,98981.45
2023-06-07T12:57:07.523Z,98980.77
2023-06-07T13:02:11.778Z,98986.30
2023-06-07T13:07:15.094Z,98980.58
2023-06-07T13:12:18.640Z,98978.34
2023-06-07T13:17:21.958Z,98973.83
2023-06-07T13:22:25.690Z,98971.73
2023-06-07T13:27:28.935Z,98969.73
2023-06-07T13:32:32.169Z,98970.66
2023-06-07T13:37:35.502Z,98972.81
2023-06-07T13:42:40.956Z,98967.91
2023-06-07T13:47:44.078Z,98962.59
2023-06-07T13:52:47.127Z,98962.23
2023-06-07T13:57:50.178Z,98960.16
2023-06-07T14:02:53.898Z,98962.89
2023-06-07T14:07:57.120Z,98968.21
2023-06-07T14:13:00.567Z,98969.97
2023-06-07T14:18:04.709Z,98967.00
2023-06-07T14:23:08.928Z,98967.67
2023-06-07T14:28:11.992Z,98949.57
2023-06-07T14:33:15.136Z,98955.42
2023-06-07T14:38:18.245Z,98961.65
2023-06-07T14:43:21.524Z,98960.59
2023-06-07T14:48:24.581Z,98960.73
2023-06-07T14:53:27.723Z,98961.77
2023-06-07T14:58:30.924Z,98957.52
2023-06-07T15:03:36.856Z,98959.48
2023-06-07T15:08:40.062Z,98960.74
2023-06-07T15:13:43.541Z,98966.67
2023-06-07T15:18:46.859Z,98967.75
2023-06-07T15:23:51.137Z,98968.44
2023-06-07T16:13:52.534Z,98989.89
2023-06-07T16:18:55.795Z,98994.07
2023-06-07T16:23:59.538Z,98989.70
2023-06-07T16:29:05.389Z,98993.47
2023-06-07T16:34:09.019Z,98995.40
2023-06-07T16:39:12.241Z,98986.55
2023-06-07T16:44:16.015Z,98986.77
2023-06-07T16:49:19.705Z,98979.85
2023-06-07T16:54:22.832Z,98981.19
2023-06-07T16:59:26.780Z,98978.58
2023-06-07T17:04:29.815Z,98978.21
2023-06-07T17:09:32.916Z,98977.42
2023-06-07T17:14:36.068Z,98974.73
2023-06-07T17:19:39.423Z,98972.77
2023-06-07T17:24:43.357Z,98968.84
2023-06-07T17:29:46.694Z,98976.55
2023-06-07T17:34:49.769Z,98975.52
2023-06-07T17:39:53.272Z,98982.41
2023-06-07T17:44:56.540Z,98989.30
2023-06-07T17:49:59.590Z,98995.11
2023-06-07T17:55:02.834Z,98993.99
2023-06-07T18:00:07.635Z,98986.29
2023-06-07T18:05:21.711Z,98985.13
2023-06-07T18:10:24.928Z,98993.75
2023-06-07T18:15:29.038Z,99002.52
2023-06-07T18:20:32.607Z,99004.50
2023-06-07T18:25:35.827Z,99007.92
2023-06-07T18:30:39.037Z,99007.91
2023-06-07T18:35:42.172Z,98998.34
2023-06-07T18:40:45.252Z,98996.80
2023-06-07T18:45:49.212Z,98998.36
2023-06-07T18:50:52.440Z,99007.95
2023-06-07T18:55:55.647Z,99009.77
2023-06-07T19:00:58.692Z,99009.02
2023-06-07T19:06:02.943Z,99018.59
2023-06-07T19:11:06.578Z,99029.23
2023-06-07T19:16:10.180Z,99035.78
2023-06-07T19:21:24.787Z,99038.88
2023-06-07T19:26:29.658Z,99043.88
2023-06-07T19:31:34.328Z,99048.04
2023-06-07T19:36:38.484Z,99048.59
2023-06-07T19:41:42.959Z,99049.27
2023-06-07T19:46:48.084Z,99047.29
2023-06-07T19:51:51.243Z,99051.98
2023-06-07T19:56:54.400Z,99052.30
2023-06-07T20:01:58.752Z,99050.42
2023-06-07T20:07:03.014Z,99054.48
2023-06-07T20:12:10.733Z,99054.01
2023-06-07T20:17:14.817Z,99049.96
2023-06-07T20:22:18.053Z,99049.46
2023-06-07T20:27:21.169Z,99045.65
2023-06-07T20:32:24.331Z,99043.90
2023-06-07T20:37:27.414Z,99052.49
2023-06-07T20:42:30.531Z,99049.81
2023-06-07T20:47:35.226Z,99048.94
2023-06-07T20:52:38.361Z,99048.91
2023-06-07T20:57:41.723Z,99053.92
2023-06-07T21:02:45.075Z,99059.45
2023-06-07T21:07:48.560Z,99057.10
2023-06-07T21:12:51.684Z,99063.08
2023-06-07T21:17:54.735Z,99063.60
2023-06-07T21:22:57.940Z,99065.63
2023-06-07T21:28:01.265Z,99060.27
2023-06-07T21:33:13.090Z,99059.90
2023-06-07T21:38:16.162Z,99057.58
2023-06-07T21:43:19.806Z,99053.34
2023-06-07T21:48:23.157Z,99051.02
2023-06-07T21:53:26.564Z,99046.61
2023-06-07T21:58:29.912Z,99046.58
2023-06-07T22:03:33.817Z,99044.67
2023-06-07T22:08:39.947Z,99044.73
2023-06-07T22:13:45.918Z,99034.29
2023-06-07T22:18:49.895Z,99028.70
2023-06-07T22:23:53.318Z,99028.05
2023-06-07T22:29:01.452Z,99025.23
2023-06-07T22:34:05.755Z,99021.23
2023-06-07T22:39:12.435Z,99023.51
2023-06-07T22:44:15.748Z,99022.31
2023-06-07T22:49:19.809Z,99021.54
2023-06-07T22:54:24.122Z,99021.14
2023-06-07T22:59:27.405Z,99023.40
2023-06-07T23:04:34.686Z,99024.52
2023-06-07T23:09:39.415Z,99020.73
2023-06-07T23:14:43.706Z,99022.02
2023-06-07T23:19:51.225Z,99017.26
2023-06-07T23:24:54.525Z,99013.00
2023-06-07T23:29:57.868Z,99013.30
2023-06-07T23:35:08.664Z,99015.54
2023-06-07T23:40:16.968Z,99015.23
2023-06-07T23:45:29.420Z,99012.23
2023-06-07T23:50:32.727Z,99008.52
2023-06-07T23:55:36.123Z,99007.49
